createdAt,value
2023-01-19T00:02:00.425Z,99838.28
2023-01-19T00:04:30.060Z,99840.88
2023-01-19T00:07:03.372Z,99842.63
2023-01-19T00:09:33.777Z,99847.91
2023-01-19T00:12:03.795Z,99848.72
2023-01-19T00:14:33.782Z,99851.31
2023-01-19T00:17:05.429Z,99852.19
2023-01-19T00:19:35.144Z,99850.44
2023-01-19T00:22:06.305Z,99848.69
2023-01-19T00:24:36.127Z,99863.56
2023-01-19T00:27:06.155Z,99877.50
2023-01-19T00:29:36.003Z,99871.47
2023-01-19T00:32:08.015Z,99874.06
2023-01-19T00:34:39.893Z,99882.81
2023-01-19T00:37:09.891Z,99883.69
2023-01-19T00:39:39.593Z,99890.72
2023-01-19T00:42:27.397Z,99901.16
2023-01-19T00:44:57.372Z,99903.78
2023-01-19T00:47:28.853Z,99909.13
2023-01-19T00:49:58.766Z,99930.06
2023-01-19T00:52:28.875Z,99923.88
2023-01-19T00:54:58.624Z,99921.25
2023-01-19T00:57:29.830Z,99919.47
2023-01-19T00:59:59.505Z,99916.91
2023-01-19T01:02:31.047Z,99923.00
2023-01-19T01:05:03.060Z,99925.59
2023-01-19T01:07:35.413Z,99927.47
2023-01-19T01:10:05.052Z,99934.56
2023-01-19T01:12:35.158Z,99943.16
2023-01-19T01:15:05.415Z,99955.31
2023-01-19T01:17:37.387Z,99969.19
2023-01-19T01:20:07.579Z,99975.19
2023-01-19T01:22:39.425Z,99970.81
2023-01-19T01:25:09.385Z,99987.34
2023-01-19T01:27:39.535Z,99984.66
2023-01-19T01:30:10.187Z,99986.38
2023-01-19T01:32:41.871Z,99989.88
2023-01-19T01:35:11.736Z,99990.75
2023-01-19T01:37:42.960Z,99988.19
2023-01-19T01:40:14.384Z,99997.81
2023-01-19T01:42:44.736Z,99999.53
2023-01-19T01:45:26.154Z,100000.41
2023-01-19T01:47:59.095Z,100009.16
2023-01-19T01:50:30.334Z,100015.41
2023-01-19T01:53:06.639Z,100018.88
2023-01-19T01:55:39.795Z,100024.88
2023-01-19T01:58:11.531Z,100031.09
2023-01-19T02:00:55.574Z,100033.22
2023-01-19T02:03:27.592Z,100033.13
2023-01-19T02:05:59.513Z,100038.28
2023-01-19T02:08:49.859Z,100034.78
2023-01-19T02:11:36.720Z,100030.47
2023-01-19T02:14:07.463Z,100030.75
2023-01-19T02:16:38.296Z,100027.25
2023-01-19T02:19:14.663Z,100026.44
2023-01-19T02:21:48.285Z,100027.38
2023-01-19T02:24:20.079Z,100028.28
2023-01-19T02:26:50.456Z,100024.88
2023-01-19T02:29:21.734Z,100026.53
2023-01-19T02:31:51.475Z,100033.50
2023-01-19T02:34:22.994Z,100026.41
2023-01-19T02:36:54.572Z,100030.66
2023-01-19T02:39:29.584Z,100024.53
2023-01-19T02:42:08.841Z,100036.66
2023-01-19T02:44:39.540Z,100045.25
2023-01-19T02:47:09.404Z,100041.75
2023-01-19T02:49:39.475Z,100049.59
2023-01-19T02:52:15.439Z,100046.06
2023-01-19T02:55:10.728Z,100052.94
2023-01-19T02:57:54.775Z,100054.63
2023-01-19T03:00:29.688Z,100061.50
2023-01-19T03:03:07.965Z,100068.38
2023-01-19T03:05:51.048Z,100066.59
2023-01-19T03:08:25.185Z,100078.69
2023-01-19T03:11:02.414Z,100078.75
2023-01-19T03:13:34.836Z,100081.34
2023-01-19T03:16:08.076Z,100081.28
2023-01-19T03:18:38.975Z,100091.78
2023-01-19T03:21:09.431Z,100083.03
2023-01-19T03:23:40.232Z,100088.25
2023-01-19T03:26:14.715Z,100091.72
2023-01-19T03:28:46.012Z,100097.13
2023-01-19T03:31:18.163Z,100099.72
2023-01-19T03:33:49.827Z,100100.66
2023-01-19T03:36:21.999Z,100103.28
2023-01-19T03:38:52.621Z,100103.28
2023-01-19T03:41:25.585Z,100105.09
2023-01-19T03:43:57.032Z,100110.31
2023-01-19T03:46:27.816Z,100112.94
2023-01-19T03:48:58.924Z,100117.28
2023-01-19T03:51:29.114Z,100121.69
2023-01-19T03:53:58.732Z,100118.25
2023-01-19T03:56:30.262Z,100125.34
2023-01-19T03:59:00.023Z,100118.41
2023-01-19T04:01:30.186Z,100127.13
2023-01-19T04:03:59.890Z,100126.34
2023-01-19T04:06:29.792Z,100124.75
2023-01-19T04:08:59.412Z,100123.91
2023-01-19T04:11:31.885Z,100125.63
2023-01-19T04:14:01.949Z,100129.13
2023-01-19T04:16:32.174Z,100122.16
2023-01-19T04:19:01.840Z,100121.28
2023-01-19T04:21:31.914Z,100116.06
2023-01-19T04:24:01.631Z,100121.25
2023-01-19T04:26:32.981Z,100115.13
2023-01-19T04:29:02.819Z,100119.41
2023-01-19T04:31:33.247Z,100115.03
2023-01-19T04:34:02.931Z,100127.13
2023-01-19T04:36:32.913Z,100116.56
2023-01-19T04:39:02.619Z,100126.84
2023-01-19T04:41:34.024Z,100128.38
2023-01-19T04:44:03.947Z,100069.28
2023-01-19T04:46:34.109Z,100128.06
2023-01-19T04:49:04.091Z,100131.41
2023-01-19T04:51:34.589Z,100139.06
2023-01-19T04:54:04.452Z,100137.09
2023-01-19T04:56:35.950Z,100134.19
2023-01-19T04:59:05.661Z,100135.81
2023-01-19T05:01:35.690Z,100136.47
2023-01-19T05:04:07.232Z,100135.38
2023-01-19T05:06:37.571Z,100136.81
2023-01-19T05:09:09.355Z,100138.41
2023-01-19T05:11:40.930Z,100133.88
2023-01-19T05:14:10.480Z,100139.00
2023-01-19T05:16:40.448Z,100136.13
2023-01-19T05:19:10.071Z,100133.38
2023-01-19T05:21:40.272Z,100142.72
2023-01-19T05:24:10.263Z,100141.56
2023-01-19T05:26:41.690Z,100150.97
2023-01-19T05:29:12.243Z,100147.44
2023-01-19T05:31:42.291Z,100142.19
2023-01-19T05:34:12.650Z,100132.50
2023-01-19T05:36:43.077Z,100144.53
2023-01-19T05:39:12.633Z,100145.34
2023-01-19T05:41:45.765Z,100161.00
2023-01-19T05:44:15.487Z,100163.25
2023-01-19T05:46:45.565Z,100160.53
2023-01-19T05:49:16.331Z,100164.84
2023-01-19T05:51:46.740Z,100173.25
2023-01-19T05:54:16.873Z,100170.69
2023-01-19T05:56:48.324Z,100166.28
2023-01-19T05:59:24.485Z,100162.66
2023-01-19T06:01:54.844Z,100166.00
2023-01-19T06:04:24.723Z,100167.59
2023-01-19T06:06:54.653Z,100179.03
2023-01-19T06:09:24.350Z,100075.47
2023-01-19T06:11:56.820Z,100193.41
2023-01-19T06:14:26.845Z,100199.47
2023-01-19T06:16:56.808Z,100201.13
2023-01-19T06:19:26.550Z,100198.56
2023-01-19T06:21:57.492Z,100193.22
2023-01-19T06:24:28.252Z,100195.75
2023-01-19T06:27:01.479Z,100206.69
2023-01-19T06:29:31.190Z,100207.69
2023-01-19T06:32:01.296Z,100203.34
2023-01-19T06:34:30.980Z,100200.91
2023-01-19T06:37:01.250Z,100200.06
2023-01-19T06:39:31.031Z,100201.59
2023-01-19T06:42:02.445Z,100204.88
2023-01-19T06:44:32.244Z,100209.03
2023-01-19T06:47:15.606Z,100210.00
2023-01-19T06:49:45.953Z,100206.75
2023-01-19T06:52:17.831Z,100220.63
2023-01-19T06:54:49.753Z,100225.72
2023-01-19T06:57:21.377Z,100229.13
2023-01-19T06:59:51.140Z,100236.03
2023-01-19T07:02:27.854Z,100237.84
2023-01-19T07:04:59.228Z,100248.34
2023-01-19T07:07:30.183Z,100248.84
2023-01-19T07:09:59.861Z,100245.41
2023-01-19T07:12:31.901Z,100254.13
2023-01-19T07:15:01.782Z,100263.50
2023-01-19T07:17:31.935Z,100207.81
2023-01-19T07:20:02.072Z,100287.63
2023-01-19T07:22:32.136Z,100292.66
2023-01-19T07:25:02.020Z,100300.66
2023-01-19T07:27:33.622Z,100312.94
2023-01-19T07:30:04.865Z,100320.97
2023-01-19T07:32:35.101Z,100331.53
2023-01-19T07:35:05.403Z,100329.84
2023-01-19T07:37:35.603Z,100338.81
2023-01-19T07:40:05.666Z,100340.00
2023-01-19T07:42:38.336Z,100340.38
2023-01-19T07:45:08.561Z,100351.91
2023-01-19T07:47:38.732Z,100356.38
2023-01-19T07:50:08.492Z,100355.78
2023-01-19T07:52:38.511Z,100361.19
2023-01-19T07:55:08.914Z,100371.91
2023-01-19T07:57:41.771Z,100366.94
2023-01-19T08:00:12.132Z,100362.81
2023-01-19T08:02:45.252Z,100357.75
2023-01-19T08:05:15.700Z,100368.22
2023-01-19T08:07:46.594Z,100364.84
2023-01-19T08:10:16.943Z,100373.53
2023-01-19T08:12:48.781Z,100368.22
2023-01-19T08:15:18.710Z,100374.34
2023-01-19T08:17:56.463Z,100379.44
2023-01-19T08:20:26.465Z,100389.72
2023-01-19T08:23:00.691Z,100379.25
2023-01-19T08:25:34.106Z,100385.41
2023-01-19T08:28:06.887Z,100382.94
2023-01-19T08:30:37.874Z,100379.72
2023-01-19T08:33:08.743Z,100384.22
2023-01-19T08:35:40.381Z,100387.72
2023-01-19T08:38:11.643Z,100381.72
2023-01-19T08:40:42.357Z,100386.16
2023-01-19T08:43:14.781Z,100385.41
2023-01-19T08:45:46.894Z,100391.50
2023-01-19T08:48:17.668Z,100395.81
2023-01-19T08:50:47.986Z,100399.34
2023-01-19T08:53:18.517Z,100399.50
2023-01-19T08:55:48.572Z,100400.44
2023-01-19T08:58:21.411Z,100400.75
2023-01-19T09:00:52.902Z,100397.44
2023-01-19T09:03:23.140Z,100395.94
2023-01-19T09:05:52.963Z,100399.09
2023-01-19T09:08:23.099Z,100399.25
2023-01-19T09:10:52.877Z,100403.84
2023-01-19T09:13:24.459Z,100393.66
2023-01-19T09:15:54.233Z,100403.34
2023-01-19T09:18:25.058Z,100398.81
2023-01-19T09:20:55.590Z,100407.66
2023-01-19T09:23:26.690Z,100399.81
2023-01-19T09:25:58.498Z,100406.22
2023-01-19T09:28:30.477Z,100412.16
2023-01-19T09:31:01.272Z,100412.63
2023-01-19T09:33:34.330Z,100419.66
2023-01-19T09:36:04.158Z,100416.06
2023-01-19T09:38:34.633Z,100417.94
2023-01-19T09:41:07.816Z,100411.25
2023-01-19T09:43:43.057Z,100404.41
2023-01-19T09:46:15.565Z,100415.44
2023-01-19T09:48:48.867Z,100412.56
2023-01-19T09:51:22.466Z,100412.31
2023-01-19T09:53:56.056Z,100407.28
2023-01-19T09:56:26.326Z,100415.09
2023-01-19T09:58:58.219Z,100411.50
2023-01-19T10:01:42.205Z,100404.28
2023-01-19T10:04:29.320Z,100409.88
2023-01-19T10:07:08.399Z,100414.38
2023-01-19T10:09:43.049Z,100408.72
2023-01-19T10:12:19.877Z,100409.66
2023-01-19T10:14:58.463Z,100409.19
2023-01-19T10:17:35.227Z,100408.47
2023-01-19T10:20:09.526Z,100414.88
2023-01-19T10:22:40.107Z,100408.25
2023-01-19T10:25:15.956Z,100412.91
2023-01-19T10:27:46.668Z,100410.34
2023-01-19T10:30:22.946Z,100403.50
2023-01-19T10:32:53.500Z,100406.91
2023-01-19T10:35:25.477Z,100403.25
2023-01-19T10:37:57.687Z,100411.09
2023-01-19T10:40:32.559Z,100404.09
2023-01-19T10:43:03.775Z,100404.09
2023-01-19T10:45:36.870Z,100403.09
2023-01-19T10:48:25.686Z,100398.88
2023-01-19T10:51:04.539Z,100401.59
2023-01-19T10:53:34.298Z,100398.13
2023-01-19T10:56:15.950Z,100390.47
2023-01-19T10:58:46.276Z,100394.75
2023-01-19T11:01:19.496Z,100387.00
2023-01-19T11:03:51.703Z,100387.09
2023-01-19T11:06:30.435Z,100382.84
2023-01-19T11:09:18.716Z,100388.94
2023-01-19T11:11:51.989Z,100395.19
2023-01-19T11:14:24.226Z,100391.81
2023-01-19T11:16:56.739Z,100398.00
2023-01-19T11:19:28.389Z,100390.19
2023-01-19T11:22:11.322Z,100394.69
2023-01-19T11:24:41.559Z,100391.41
2023-01-19T11:27:12.327Z,100392.41
2023-01-19T11:29:42.223Z,100394.94
2023-01-19T11:32:22.624Z,100396.69
2023-01-19T11:34:52.262Z,100408.69
2023-01-19T11:37:34.743Z,100406.72
2023-01-19T11:40:06.494Z,100395.50
2023-01-19T11:42:37.915Z,100398.19
2023-01-19T11:45:12.597Z,100394.63
2023-01-19T11:47:46.540Z,100390.28
2023-01-19T11:50:22.954Z,100395.59
2023-01-19T11:52:56.931Z,100395.03
2023-01-19T11:55:33.225Z,100394.31
2023-01-19T11:58:06.444Z,100391.81
2023-01-19T12:00:38.776Z,100393.38
2023-01-19T12:03:14.968Z,100395.97
2023-01-19T12:05:48.179Z,100396.94
2023-01-19T12:08:22.512Z,100399.81
2023-01-19T12:10:53.665Z,100391.28
2023-01-19T12:13:25.235Z,100386.16
2023-01-19T12:15:58.204Z,100381.75
2023-01-19T12:18:31.986Z,100381.72
2023-01-19T12:21:04.096Z,100380.84
2023-01-19T12:23:40.765Z,100378.16
2023-01-19T12:26:22.330Z,100378.13
2023-01-19T12:28:54.165Z,100376.31
2023-01-19T12:31:24.465Z,100384.22
2023-01-19T12:33:56.146Z,100379.84
2023-01-19T12:36:39.060Z,100381.56
2023-01-19T12:39:16.063Z,100387.69
2023-01-19T12:41:46.335Z,100384.03
2023-01-19T12:44:19.565Z,100381.22
2023-01-19T12:46:50.722Z,100377.34
2023-01-19T12:49:28.595Z,100384.13
2023-01-19T12:52:14.205Z,100385.88
2023-01-19T12:54:52.737Z,100383.28
2023-01-19T12:57:25.585Z,100383.25
2023-01-19T13:00:00.815Z,100384.03
2023-01-19T13:02:51.415Z,100380.47
2023-01-19T13:05:26.726Z,100379.56
2023-01-19T13:08:15.928Z,100388.19
2023-01-19T13:11:14.780Z,100396.03
2023-01-19T13:13:45.632Z,100395.00
2023-01-19T13:16:34.346Z,100390.50
2023-01-19T13:19:16.133Z,100388.78
2023-01-19T13:21:49.849Z,100393.97
2023-01-19T13:24:22.589Z,100397.38
2023-01-19T13:26:58.537Z,100400.88
2023-01-19T13:29:31.693Z,100399.09
2023-01-19T13:32:04.260Z,100390.38
2023-01-19T13:34:41.852Z,100386.91
2023-01-19T13:37:18.485Z,100387.81
2023-01-19T13:39:50.516Z,100389.59
2023-01-19T13:42:31.066Z,100388.69
2023-01-19T13:45:02.467Z,100392.13
2023-01-19T13:47:38.737Z,100396.50
2023-01-19T13:50:09.020Z,100391.25
2023-01-19T13:52:46.548Z,100384.28
2023-01-19T13:55:17.057Z,100393.00
2023-01-19T13:57:48.089Z,100393.88
2023-01-19T14:00:19.557Z,100397.38
2023-01-19T14:02:54.578Z,100394.75
2023-01-19T14:05:26.183Z,100400.88
2023-01-19T14:08:05.214Z,100400.00
2023-01-19T14:10:36.171Z,100399.09
2023-01-19T14:13:07.344Z,100404.31
2023-01-19T14:15:38.859Z,100403.34
2023-01-19T14:18:13.639Z,100401.63
2023-01-19T14:20:53.042Z,100407.72
2023-01-19T14:23:45.387Z,100406.00
2023-01-19T14:26:34.858Z,100416.44
2023-01-19T14:29:08.917Z,100418.16
2023-01-19T14:31:45.458Z,100416.41
2023-01-19T14:34:31.476Z,100419.03
2023-01-19T14:37:01.524Z,100421.63
2023-01-19T14:39:34.437Z,100424.25
2023-01-19T14:42:06.980Z,100424.19
2023-01-19T14:44:38.867Z,100433.75
2023-01-19T14:47:21.406Z,100427.63
2023-01-19T14:49:52.104Z,100424.06
2023-01-19T14:52:23.115Z,100429.31
2023-01-19T14:54:56.196Z,100429.38
2023-01-19T14:57:26.460Z,100435.47
2023-01-19T14:59:56.693Z,100430.16
2023-01-19T15:02:26.648Z,100439.75
2023-01-19T15:04:58.136Z,100434.53
2023-01-19T15:07:27.828Z,100431.00
2023-01-19T15:10:00.670Z,100432.69
2023-01-19T15:12:31.663Z,100431.78
2023-01-19T15:15:02.926Z,100427.41
2023-01-19T15:17:32.797Z,100438.72
2023-01-19T15:20:02.886Z,100437.78
2023-01-19T15:22:32.756Z,100437.78
2023-01-19T15:25:04.116Z,100436.91
2023-01-19T15:27:33.906Z,100438.59
2023-01-19T15:30:04.003Z,100439.38
2023-01-19T15:32:33.807Z,100447.19
2023-01-19T15:35:03.876Z,100454.16
2023-01-19T15:37:33.576Z,100445.38
2023-01-19T15:40:05.144Z,100449.66
2023-01-19T15:42:35.125Z,100460.06
2023-01-19T15:45:18.877Z,100465.25
2023-01-19T15:47:48.640Z,100464.34
2023-01-19T15:50:20.317Z,100460.78
2023-01-19T15:52:50.096Z,100461.63
2023-01-19T15:55:21.614Z,100459.81
2023-01-19T15:57:51.475Z,100455.41
2023-01-19T16:00:21.576Z,100461.50
2023-01-19T16:02:52.416Z,100468.47
2023-01-19T16:05:30.565Z,100469.34
2023-01-19T16:08:07.483Z,100469.25
2023-01-19T16:10:38.938Z,100473.53
2023-01-19T16:13:08.861Z,100472.66
2023-01-19T16:15:39.460Z,100480.41
2023-01-19T16:18:09.192Z,100483.03
2023-01-19T16:20:39.394Z,100483.09
2023-01-19T16:23:14.771Z,100481.31
2023-01-19T16:25:56.296Z,100475.16
2023-01-19T16:28:26.665Z,100479.50
2023-01-19T16:30:56.695Z,100477.66
2023-01-19T16:33:26.439Z,100478.50
2023-01-19T16:35:56.430Z,100480.22
2023-01-19T16:38:26.164Z,100486.19
2023-01-19T16:40:57.727Z,100484.41
2023-01-19T16:43:28.351Z,100484.28
2023-01-19T16:46:00.380Z,100482.53
2023-01-19T16:48:32.598Z,100483.41
2023-01-19T16:51:03.869Z,100482.50
2023-01-19T16:53:35.125Z,100487.75
2023-01-19T16:56:08.118Z,100493.88
2023-01-19T16:58:38.937Z,100492.06
2023-01-19T17:01:09.945Z,100490.38
2023-01-19T17:03:40.080Z,100494.78
2023-01-19T17:06:10.996Z,100494.88
2023-01-19T17:08:41.066Z,100494.81
2023-01-19T17:11:13.969Z,100501.84
2023-01-19T17:13:43.866Z,100500.13
2023-01-19T17:16:13.954Z,100501.88
2023-01-19T17:18:43.607Z,100502.84
2023-01-19T17:21:17.856Z,100499.38
2023-01-19T17:23:48.753Z,100505.50
2023-01-19T17:26:20.859Z,100509.03
2023-01-19T17:28:50.536Z,100509.97
2023-01-19T17:31:21.571Z,100509.09
2023-01-19T17:33:51.807Z,100504.75
2023-01-19T17:36:22.952Z,100505.66
2023-01-19T17:38:53.327Z,100515.25
2023-01-19T17:41:25.571Z,100509.16
2023-01-19T17:43:55.511Z,100514.41
2023-01-19T17:46:26.420Z,100510.03
2023-01-19T17:48:56.664Z,100508.28
2023-01-19T17:51:27.067Z,100514.41
2023-01-19T17:53:57.322Z,100517.88
2023-01-19T17:56:30.109Z,100518.72
2023-01-19T17:59:02.556Z,100519.59
2023-01-19T18:01:41.923Z,100478.25
2023-01-19T18:04:14.986Z,100524.06
2023-01-19T18:06:45.428Z,100517.88
2023-01-19T18:09:15.392Z,100514.47
2023-01-19T18:11:47.102Z,100513.59
2023-01-19T18:14:16.814Z,100525.78
2023-01-19T18:16:46.858Z,100517.94
2023-01-19T18:19:16.547Z,100527.56
2023-01-19T18:21:47.549Z,100524.94
2023-01-19T18:24:17.215Z,100523.25
2023-01-19T18:26:48.727Z,100525.88
2023-01-19T18:29:19.635Z,100525.00
2023-01-19T18:31:49.683Z,100530.22
2023-01-19T18:34:19.307Z,100533.72
2023-01-19T18:36:49.427Z,100542.44
2023-01-19T18:39:19.257Z,100539.88
2023-01-19T18:41:50.721Z,100540.81
2023-01-19T18:44:20.407Z,100539.06
2023-01-19T18:46:50.770Z,100534.69
2023-01-19T18:49:20.517Z,100542.41
2023-01-19T18:51:51.319Z,100537.19
2023-01-19T18:54:21.136Z,100544.13
2023-01-19T18:56:52.900Z,100545.91
2023-01-19T18:59:22.571Z,100535.41
2023-01-19T19:01:52.726Z,100531.09
2023-01-19T19:04:22.560Z,100538.06
2023-01-19T19:06:52.483Z,100539.78
2023-01-19T19:09:22.099Z,100545.03
2023-01-19T19:11:53.599Z,100536.28
2023-01-19T19:14:23.498Z,100544.13
2023-01-19T19:16:53.924Z,100541.53
2023-01-19T19:19:23.720Z,100538.91
2023-01-19T19:21:53.987Z,100545.94
2023-01-19T19:24:24.051Z,100545.13
2023-01-19T19:26:55.562Z,100548.63
2023-01-19T19:29:25.294Z,100545.03
2023-01-19T19:31:56.912Z,100551.13
2023-01-19T19:34:26.655Z,100552.88
2023-01-19T19:36:56.496Z,100552.06
2023-01-19T19:39:26.680Z,100553.75
2023-01-19T19:41:58.109Z,100550.28
2023-01-19T19:44:27.999Z,100553.75
2023-01-19T19:46:59.232Z,100547.72
2023-01-19T19:49:28.942Z,100552.13
2023-01-19T19:51:59.191Z,100547.78
2023-01-19T19:54:28.968Z,100546.91
2023-01-19T19:57:02.673Z,100553.03
2023-01-19T19:59:32.271Z,100547.84
2023-01-19T20:02:02.266Z,100552.22
2023-01-19T20:04:32.169Z,100542.66
2023-01-19T20:07:02.227Z,100539.16
2023-01-19T20:09:33.064Z,100549.66
2023-01-19T20:12:06.005Z,100545.25
2023-01-19T20:14:36.909Z,100543.50
2023-01-19T20:17:06.841Z,100537.41
2023-01-19T20:19:36.352Z,100540.81
2023-01-19T20:22:06.255Z,100539.06
2023-01-19T20:24:35.844Z,100534.44
2023-01-19T20:27:07.347Z,100549.38
2023-01-19T20:29:37.252Z,100548.38
2023-01-19T20:32:08.311Z,100555.31
2023-01-19T20:34:38.899Z,100551.78
2023-01-19T20:37:09.759Z,100553.50
2023-01-19T20:39:39.547Z,100555.25
2023-01-19T20:42:11.894Z,100553.25
2023-01-19T20:44:41.989Z,100556.72
2023-01-19T20:47:12.296Z,100555.78
2023-01-19T20:49:42.604Z,100559.19
2023-01-19T20:52:12.554Z,100566.13
2023-01-19T20:54:42.338Z,100553.94
2023-01-19T20:57:14.461Z,100561.78
2023-01-19T20:59:45.055Z,100574.19
2023-01-19T21:02:17.100Z,100563.63
2023-01-19T21:04:46.761Z,100567.00
2023-01-19T21:07:16.682Z,100572.25
2023-01-19T21:09:46.362Z,100574.84
2023-01-19T21:12:23.147Z,100573.28
2023-01-19T21:14:53.861Z,100580.28
2023-01-19T21:17:23.967Z,100576.81
2023-01-19T21:19:54.376Z,100585.63
2023-01-19T21:22:27.254Z,100584.78
2023-01-19T21:24:58.136Z,100578.78
2023-01-19T21:27:30.364Z,100587.56
2023-01-19T21:30:03.560Z,100589.56
2023-01-19T21:32:37.426Z,100586.06
2023-01-19T21:35:13.217Z,100594.06
2023-01-19T21:37:43.882Z,100600.97
2023-01-19T21:40:15.708Z,100598.47
2023-01-19T21:42:48.872Z,100599.25
2023-01-19T21:45:19.663Z,100593.91
2023-01-19T21:47:51.962Z,100604.38
2023-01-19T21:50:24.092Z,100606.19
2023-01-19T21:52:55.722Z,100602.75
2023-01-19T21:55:25.600Z,100606.38
2023-01-19T21:57:59.292Z,100607.16
2023-01-19T22:00:31.373Z,100607.19
2023-01-19T22:03:04.489Z,100607.88
2023-01-19T22:05:36.905Z,100613.94
2023-01-19T22:08:07.600Z,100617.34
2023-01-19T22:10:38.664Z,100620.78
2023-01-19T22:13:10.951Z,100628.47
2023-01-19T22:15:41.252Z,100632.69
2023-01-19T22:18:12.069Z,100633.56
2023-01-19T22:20:41.980Z,100637.03
2023-01-19T22:23:12.112Z,100635.28
2023-01-19T22:25:41.704Z,100632.66
2023-01-19T22:28:13.258Z,100634.13
2023-01-19T22:30:43.012Z,100636.59
2023-01-19T22:33:12.990Z,100632.16
2023-01-19T22:35:42.613Z,100640.72
2023-01-19T22:38:12.890Z,100640.59
2023-01-19T22:40:42.579Z,100641.56
2023-01-19T22:43:14.429Z,100640.72
2023-01-19T22:45:44.505Z,100641.63
2023-01-19T22:48:14.546Z,100644.25
2023-01-19T22:50:44.204Z,100648.59
2023-01-19T22:53:14.289Z,100645.06
2023-01-19T22:55:43.919Z,100644.19
2023-01-19T22:58:15.628Z,100652.94
2023-01-19T23:00:45.291Z,100655.44
2023-01-19T23:03:15.448Z,100665.81
2023-01-19T23:05:45.279Z,100669.25
2023-01-19T23:08:15.459Z,100673.47
2023-01-19T23:10:45.227Z,100664.03
2023-01-19T23:13:16.660Z,100665.44
2023-01-19T23:15:46.402Z,100665.00
2023-01-19T23:18:16.599Z,100661.31
2023-01-19T23:20:46.337Z,100666.13
2023-01-19T23:23:16.457Z,100669.19
2023-01-19T23:25:46.140Z,100669.78
2023-01-19T23:28:17.648Z,100679.91
2023-01-19T23:30:47.444Z,100682.22
2023-01-19T23:33:17.401Z,100685.44
2023-01-19T23:35:47.082Z,100683.38
2023-01-19T23:38:17.255Z,100684.94
2023-01-19T23:40:46.829Z,100688.28
2023-01-19T23:43:18.270Z,100689.00
2023-01-19T23:45:47.896Z,100681.13
2023-01-19T23:48:18.127Z,100686.91
2023-01-19T23:50:47.827Z,100690.28
2023-01-19T23:53:17.897Z,100690.16
2023-01-19T23:55:47.589Z,100691.72
2023-01-19T23:58:18.927Z,100699.47
